sensor_id;sensor_type;location;lat;lon;timestamp;P1;durP1;ratioP1;P2;durP2;ratioP2
62572;SDS011;48626;51.678;5.806;2023-05-20T00:00:49;6.10;;;3.22;;
62572;SDS011;48626;51.678;5.806;2023-05-20T00:03:15;11.65;;;3.47;;
62572;SDS011;48626;51.678;5.806;2023-05-20T00:05:41;9.50;;;3.60;;
62572;SDS011;48626;51.678;5.806;2023-05-20T00:08:07;8.48;;;3.78;;
62572;SDS011;48626;51.678;5.806;2023-05-20T00:10:36;11.00;;;3.70;;
62572;SDS011;48626;51.678;5.806;2023-05-20T00:13:02;14.73;;;3.92;;
62572;SDS011;48626;51.678;5.806;2023-05-20T00:15:28;9.25;;;3.47;;
62572;SDS011;48626;51.678;5.806;2023-05-20T00:17:54;14.55;;;4.03;;
62572;SDS011;48626;51.678;5.806;2023-05-20T00:20:21;7.63;;;3.53;;
62572;SDS011;48626;51.678;5.806;2023-05-20T00:22:47;9.90;;;3.85;;
62572;SDS011;48626;51.678;5.806;2023-05-20T00:25:12;10.77;;;3.47;;
62572;SDS011;48626;51.678;5.806;2023-05-20T00:27:39;9.32;;;4.00;;
62572;SDS011;48626;51.678;5.806;2023-05-20T00:30:05;10.98;;;3.35;;
62572;SDS011;48626;51.678;5.806;2023-05-20T00:32:32;6.32;;;3.40;;
62572;SDS011;48626;51.678;5.806;2023-05-20T00:34:58;11.55;;;4.07;;
62572;SDS011;48626;51.678;5.806;2023-05-20T00:37:25;8.60;;;3.78;;
62572;SDS011;48626;51.678;5.806;2023-05-20T00:39:50;12.35;;;4.13;;
62572;SDS011;48626;51.678;5.806;2023-05-20T00:42:34;8.68;;;3.65;;
62572;SDS011;48626;51.678;5.806;2023-05-20T00:45:00;9.10;;;3.90;;
62572;SDS011;48626;51.678;5.806;2023-05-20T00:47:27;12.15;;;3.55;;
62572;SDS011;48626;51.678;5.806;2023-05-20T00:49:55;9.35;;;3.60;;
62572;SDS011;48626;51.678;5.806;2023-05-20T00:52:22;19.00;;;4.03;;
62572;SDS011;48626;51.678;5.806;2023-05-20T00:54:49;8.88;;;3.58;;
62572;SDS011;48626;51.678;5.806;2023-05-20T00:57:16;9.70;;;3.92;;
62572;SDS011;48626;51.678;5.806;2023-05-20T00:59:43;11.07;;;4.18;;
62572;SDS011;48626;51.678;5.806;2023-05-20T01:02:09;10.68;;;4.30;;
62572;SDS011;48626;51.678;5.806;2023-05-20T01:04:34;10.93;;;3.97;;
62572;SDS011;48626;51.678;5.806;2023-05-20T01:07:01;15.57;;;4.10;;
62572;SDS011;48626;51.678;5.806;2023-05-20T01:09:29;7.25;;;3.92;;
62572;SDS011;48626;51.678;5.806;2023-05-20T01:14:53;7.43;;;3.88;;
62572;SDS011;48626;51.678;5.806;2023-05-20T01:17:29;11.07;;;3.72;;
62572;SDS011;48626;51.678;5.806;2023-05-20T01:19:57;10.85;;;4.15;;
62572;SDS011;48626;51.678;5.806;2023-05-20T01:22:25;8.20;;;3.58;;
62572;SDS011;48626;51.678;5.806;2023-05-20T01:24:51;9.60;;;3.88;;
62572;SDS011;48626;51.678;5.806;2023-05-20T01:27:17;12.05;;;3.78;;
62572;SDS011;48626;51.678;5.806;2023-05-20T01:29:44;11.90;;;4.22;;
62572;SDS011;48626;51.678;5.806;2023-05-20T01:32:16;9.93;;;3.60;;
62572;SDS011;48626;51.678;5.806;2023-05-20T01:34:48;9.70;;;4.13;;
62572;SDS011;48626;51.678;5.806;2023-05-20T01:37:15;10.88;;;3.72;;
62572;SDS011;48626;51.678;5.806;2023-05-20T01:39:43;9.05;;;4.00;;
62572;SDS011;48626;51.678;5.806;2023-05-20T01:42:10;10.32;;;4.03;;
62572;SDS011;48626;51.678;5.806;2023-05-20T01:44:39;8.55;;;4.13;;
62572;SDS011;48626;51.678;5.806;2023-05-20T01:47:05;10.15;;;3.90;;
62572;SDS011;48626;51.678;5.806;2023-05-20T01:49:31;10.40;;;4.03;;
62572;SDS011;48626;51.678;5.806;2023-05-20T01:51:57;10.90;;;4.45;;
62572;SDS011;48626;51.678;5.806;2023-05-20T01:54:23;11.82;;;4.20;;
62572;SDS011;48626;51.678;5.806;2023-05-20T01:56:49;8.25;;;3.90;;
62572;SDS011;48626;51.678;5.806;2023-05-20T01:59:14;10.80;;;3.95;;
62572;SDS011;48626;51.678;5.806;2023-05-20T02:01:40;10.60;;;4.30;;
62572;SDS011;48626;51.678;5.806;2023-05-20T02:04:06;11.02;;;3.80;;
62572;SDS011;48626;51.678;5.806;2023-05-20T02:06:31;7.43;;;3.80;;
62572;SDS011;48626;51.678;5.806;2023-05-20T02:08:57;10.30;;;4.18;;
62572;SDS011;48626;51.678;5.806;2023-05-20T02:11:23;15.70;;;4.43;;
62572;SDS011;48626;51.678;5.806;2023-05-20T02:13:49;10.57;;;4.07;;
62572;SDS011;48626;51.678;5.806;2023-05-20T02:16:15;12.40;;;4.57;;
62572;SDS011;48626;51.678;5.806;2023-05-20T02:18:41;8.98;;;3.80;;
62572;SDS011;48626;51.678;5.806;2023-05-20T02:21:08;15.13;;;4.55;;
62572;SDS011;48626;51.678;5.806;2023-05-20T02:23:33;10.98;;;3.90;;
62572;SDS011;48626;51.678;5.806;2023-05-20T02:25:59;9.85;;;4.43;;
62572;SDS011;48626;51.678;5.806;2023-05-20T02:28:26;10.90;;;3.92;;
62572;SDS011;48626;51.678;5.806;2023-05-20T02:30:51;8.13;;;4.40;;
62572;SDS011;48626;51.678;5.806;2023-05-20T02:33:20;9.90;;;4.03;;
62572;SDS011;48626;51.678;5.806;2023-05-20T02:35:46;7.57;;;3.80;;
62572;SDS011;48626;51.678;5.806;2023-05-20T02:38:11;9.27;;;4.03;;
62572;SDS011;48626;51.678;5.806;2023-05-20T02:40:37;10.30;;;4.03;;
62572;SDS011;48626;51.678;5.806;2023-05-20T02:43:03;9.23;;;3.95;;
62572;SDS011;48626;51.678;5.806;2023-05-20T02:45:28;10.00;;;4.22;;
62572;SDS011;48626;51.678;5.806;2023-05-20T02:47:54;12.18;;;4.28;;
62572;SDS011;48626;51.678;5.806;2023-05-20T02:50:20;14.43;;;4.25;;
62572;SDS011;48626;51.678;5.806;2023-05-20T02:52:46;13.63;;;4.45;;
62572;SDS011;48626;51.678;5.806;2023-05-20T02:55:11;11.32;;;4.35;;
62572;SDS011;48626;51.678;5.806;2023-05-20T02:57:37;13.90;;;4.60;;
62572;SDS011;48626;51.678;5.806;2023-05-20T03:00:03;10.85;;;4.00;;
62572;SDS011;48626;51.678;5.806;2023-05-20T03:02:31;11.57;;;4.30;;
62572;SDS011;48626;51.678;5.806;2023-05-20T03:04:56;11.45;;;4.45;;
62572;SDS011;48626;51.678;5.806;2023-05-20T03:07:22;11.38;;;4.53;;
62572;SDS011;48626;51.678;5.806;2023-05-20T03:09:48;10.85;;;4.50;;
62572;SDS011;48626;51.678;5.806;2023-05-20T03:12:13;7.95;;;4.10;;
62572;SDS011;48626;51.678;5.806;2023-05-20T03:14:39;11.32;;;4.55;;
62572;SDS011;48626;51.678;5.806;2023-05-20T03:17:05;10.73;;;4.38;;
62572;SDS011;48626;51.678;5.806;2023-05-20T03:19:30;12.80;;;4.93;;
62572;SDS011;48626;51.678;5.806;2023-05-20T03:21:56;11.20;;;4.25;;
62572;SDS011;48626;51.678;5.806;2023-05-20T03:24:22;14.32;;;4.50;;
62572;SDS011;48626;51.678;5.806;2023-05-20T03:26:48;9.93;;;4.25;;
62572;SDS011;48626;51.678;5.806;2023-05-20T03:29:13;11.52;;;4.60;;
62572;SDS011;48626;51.678;5.806;2023-05-20T03:31:40;10.93;;;4.32;;
62572;SDS011;48626;51.678;5.806;2023-05-20T03:34:06;10.63;;;4.32;;
62572;SDS011;48626;51.678;5.806;2023-05-20T03:36:32;16.92;;;4.57;;
62572;SDS011;48626;51.678;5.806;2023-05-20T03:38:57;14.15;;;4.50;;
62572;SDS011;48626;51.678;5.806;2023-05-20T03:41:23;9.50;;;4.47;;
62572;SDS011;48626;51.678;5.806;2023-05-20T03:43:49;13.10;;;4.53;;
62572;SDS011;48626;51.678;5.806;2023-05-20T03:46:14;9.93;;;4.70;;
62572;SDS011;48626;51.678;5.806;2023-05-20T03:48:40;7.75;;;4.38;;
62572;SDS011;48626;51.678;5.806;2023-05-20T03:51:06;10.02;;;4.55;;
62572;SDS011;48626;51.678;5.806;2023-05-20T03:53:31;11.23;;;4.40;;
62572;SDS011;48626;51.678;5.806;2023-05-20T03:55:57;12.20;;;4.47;;
62572;SDS011;48626;51.678;5.806;2023-05-20T03:58:23;8.80;;;4.32;;
62572;SDS011;48626;51.678;5.806;2023-05-20T04:00:49;12.00;;;4.68;;
62572;SDS011;48626;51.678;5.806;2023-05-20T04:03:14;11.77;;;4.40;;
62572;SDS011;48626;51.678;5.806;2023-05-20T04:05:40;8.30;;;4.35;;
62572;SDS011;48626;51.678;5.806;2023-05-20T04:08:06;15.85;;;4.70;;
62572;SDS011;48626;51.678;5.806;2023-05-20T04:10:33;10.63;;;4.68;;
62572;SDS011;48626;51.678;5.806;2023-05-20T04:12:59;14.68;;;4.43;;
62572;SDS011;48626;51.678;5.806;2023-05-20T04:15:25;7.32;;;4.60;;
62572;SDS011;48626;51.678;5.806;2023-05-20T04:17:53;5.28;;;3.92;;
62572;SDS011;48626;51.678;5.806;2023-05-20T04:20:19;11.02;;;4.38;;
62572;SDS011;48626;51.678;5.806;2023-05-20T04:22:45;16.48;;;4.50;;
62572;SDS011;48626;51.678;5.806;2023-05-20T04:25:12;9.82;;;4.47;;
62572;SDS011;48626;51.678;5.806;2023-05-20T04:27:38;8.32;;;4.10;;
62572;SDS011;48626;51.678;5.806;2023-05-20T04:30:04;7.70;;;4.32;;
62572;SDS011;48626;51.678;5.806;2023-05-20T04:32:31;11.38;;;4.53;;
62572;SDS011;48626;51.678;5.806;2023-05-20T04:34:58;10.60;;;4.60;;
62572;SDS011;48626;51.678;5.806;2023-05-20T04:37:26;11.25;;;4.35;;
62572;SDS011;48626;51.678;5.806;2023-05-20T04:39:55;10.70;;;4.30;;
62572;SDS011;48626;51.678;5.806;2023-05-20T04:42:21;9.48;;;4.70;;
62572;SDS011;48626;51.678;5.806;2023-05-20T04:44:47;7.95;;;4.63;;
62572;SDS011;48626;51.678;5.806;2023-05-20T04:47:13;9.68;;;4.50;;
62572;SDS011;48626;51.678;5.806;2023-05-20T04:49:39;9.85;;;4.70;;
62572;SDS011;48626;51.678;5.806;2023-05-20T04:52:05;10.52;;;4.20;;
62572;SDS011;48626;51.678;5.806;2023-05-20T04:54:31;9.00;;;4.43;;
62572;SDS011;48626;51.678;5.806;2023-05-20T04:56:57;12.27;;;4.50;;
62572;SDS011;48626;51.678;5.806;2023-05-20T04:59:23;8.80;;;4.50;;
62572;SDS011;48626;51.678;5.806;2023-05-20T05:01:48;8.52;;;4.47;;
62572;SDS011;48626;51.678;5.806;2023-05-20T05:04:14;9.68;;;4.30;;
62572;SDS011;48626;51.678;5.806;2023-05-20T05:06:40;9.68;;;4.68;;
62572;SDS011;48626;51.678;5.806;2023-05-20T05:09:05;12.52;;;4.60;;
62572;SDS011;48626;51.678;5.806;2023-05-20T05:11:32;10.52;;;4.25;;
62572;SDS011;48626;51.678;5.806;2023-05-20T05:13:58;8.77;;;4.30;;
62572;SDS011;48626;51.678;5.806;2023-05-20T05:16:23;8.02;;;4.25;;
62572;SDS011;48626;51.678;5.806;2023-05-20T05:18:49;10.43;;;4.47;;
62572;SDS011;48626;51.678;5.806;2023-05-20T05:21:15;7.97;;;4.45;;
62572;SDS011;48626;51.678;5.806;2023-05-20T05:23:41;9.45;;;4.57;;
62572;SDS011;48626;51.678;5.806;2023-05-20T05:26:07;12.32;;;4.75;;
62572;SDS011;48626;51.678;5.806;2023-05-20T05:28:32;8.90;;;4.30;;
62572;SDS011;48626;51.678;5.806;2023-05-20T05:30:58;10.95;;;4.20;;
62572;SDS011;48626;51.678;5.806;2023-05-20T05:33:26;7.00;;;4.30;;
62572;SDS011;48626;51.678;5.806;2023-05-20T05:35:51;12.75;;;4.55;;
62572;SDS011;48626;51.678;5.806;2023-05-20T05:38:17;10.10;;;4.40;;
62572;SDS011;48626;51.678;5.806;2023-05-20T05:40:43;9.05;;;4.18;;
62572;SDS011;48626;51.678;5.806;2023-05-20T05:43:08;5.95;;;4.05;;
62572;SDS011;48626;51.678;5.806;2023-05-20T05:45:34;12.02;;;4.50;;
62572;SDS011;48626;51.678;5.806;2023-05-20T05:48:00;8.43;;;4.18;;
62572;SDS011;48626;51.678;5.806;2023-05-20T05:50:26;9.80;;;4.40;;
62572;SDS011;48626;51.678;5.806;2023-05-20T05:52:51;6.75;;;4.30;;
62572;SDS011;48626;51.678;5.806;2023-05-20T05:55:17;8.38;;;4.65;;
62572;SDS011;48626;51.678;5.806;2023-05-20T05:57:43;10.65;;;4.60;;
62572;SDS011;48626;51.678;5.806;2023-05-20T06:00:08;9.57;;;4.85;;
62572;SDS011;48626;51.678;5.806;2023-05-20T06:02:34;10.93;;;4.40;;
62572;SDS011;48626;51.678;5.806;2023-05-20T06:05:03;8.45;;;4.28;;
62572;SDS011;48626;51.678;5.806;2023-05-20T06:07:29;16.08;;;4.35;;
62572;SDS011;48626;51.678;5.806;2023-05-20T06:09:55;11.80;;;4.30;;
62572;SDS011;48626;51.678;5.806;2023-05-20T06:12:21;11.48;;;4.53;;
62572;SDS011;48626;51.678;5.806;2023-05-20T06:14:47;12.45;;;4.32;;
62572;SDS011;48626;51.678;5.806;2023-05-20T06:17:13;8.45;;;4.30;;
62572;SDS011;48626;51.678;5.806;2023-05-20T06:19:39;8.35;;;4.70;;
62572;SDS011;48626;51.678;5.806;2023-05-20T06:22:04;10.27;;;4.47;;
62572;SDS011;48626;51.678;5.806;2023-05-20T06:24:30;8.10;;;4.05;;
62572;SDS011;48626;51.678;5.806;2023-05-20T06:26:58;9.18;;;4.10;;
62572;SDS011;48626;51.678;5.806;2023-05-20T06:29:24;8.27;;;4.20;;
62572;SDS011;48626;51.678;5.806;2023-05-20T06:31:49;6.78;;;4.03;;
62572;SDS011;48626;51.678;5.806;2023-05-20T06:34:15;8.85;;;4.07;;
62572;SDS011;48626;51.678;5.806;2023-05-20T06:36:41;8.68;;;4.20;;
62572;SDS011;48626;51.678;5.806;2023-05-20T06:39:06;6.47;;;4.05;;
62572;SDS011;48626;51.678;5.806;2023-05-20T06:41:36;9.25;;;4.50;;
62572;SDS011;48626;51.678;5.806;2023-05-20T06:44:03;7.07;;;4.00;;
62572;SDS011;48626;51.678;5.806;2023-05-20T06:46:29;7.50;;;4.15;;
62572;SDS011;48626;51.678;5.806;2023-05-20T06:48:54;7.07;;;4.10;;
62572;SDS011;48626;51.678;5.806;2023-05-20T06:51:20;6.30;;;3.97;;
62572;SDS011;48626;51.678;5.806;2023-05-20T06:53:46;7.22;;;4.32;;
62572;SDS011;48626;51.678;5.806;2023-05-20T06:56:12;6.50;;;3.97;;
62572;SDS011;48626;51.678;5.806;2023-05-20T06:58:37;8.73;;;4.43;;
62572;SDS011;48626;51.678;5.806;2023-05-20T07:01:03;7.70;;;3.78;;
62572;SDS011;48626;51.678;5.806;2023-05-20T07:03:29;7.45;;;3.92;;
62572;SDS011;48626;51.678;5.806;2023-05-20T07:05:54;7.18;;;3.92;;
62572;SDS011;48626;51.678;5.806;2023-05-20T07:08:20;12.32;;;3.63;;
62572;SDS011;48626;51.678;5.806;2023-05-20T07:10:46;8.10;;;3.70;;
62572;SDS011;48626;51.678;5.806;2023-05-20T07:13:12;7.35;;;3.92;;
62572;SDS011;48626;51.678;5.806;2023-05-20T07:15:37;11.85;;;3.60;;
62572;SDS011;48626;51.678;5.806;2023-05-20T07:18:03;6.47;;;3.97;;
62572;SDS011;48626;51.678;5.806;2023-05-20T07:20:29;9.35;;;3.95;;
62572;SDS011;48626;51.678;5.806;2023-05-20T07:22:54;6.18;;;3.70;;
62572;SDS011;48626;51.678;5.806;2023-05-20T07:25:20;8.18;;;4.13;;
62572;SDS011;48626;51.678;5.806;2023-05-20T07:27:46;8.05;;;3.83;;
62572;SDS011;48626;51.678;5.806;2023-05-20T07:30:12;16.67;;;4.28;;
62572;SDS011;48626;51.678;5.806;2023-05-20T07:32:38;11.55;;;3.92;;
62572;SDS011;48626;51.678;5.806;2023-05-20T07:35:04;11.15;;;3.67;;
62572;SDS011;48626;51.678;5.806;2023-05-20T07:37:29;11.07;;;3.63;;
62572;SDS011;48626;51.678;5.806;2023-05-20T07:39:55;7.18;;;3.78;;
62572;SDS011;48626;51.678;5.806;2023-05-20T07:42:21;6.00;;;3.45;;
62572;SDS011;48626;51.678;5.806;2023-05-20T07:44:46;5.60;;;3.72;;
62572;SDS011;48626;51.678;5.806;2023-05-20T07:47:12;6.82;;;3.60;;
62572;SDS011;48626;51.678;5.806;2023-05-20T07:49:38;5.72;;;3.45;;
62572;SDS011;48626;51.678;5.806;2023-05-20T07:52:04;4.72;;;3.38;;
62572;SDS011;48626;51.678;5.806;2023-05-20T07:54:30;8.57;;;3.40;;
62572;SDS011;48626;51.678;5.806;2023-05-20T07:56:55;7.13;;;3.47;;
62572;SDS011;48626;51.678;5.806;2023-05-20T07:59:21;6.57;;;3.20;;
62572;SDS011;48626;51.678;5.806;2023-05-20T08:01:47;7.20;;;3.60;;
62572;SDS011;48626;51.678;5.806;2023-05-20T08:04:12;7.47;;;3.95;;
62572;SDS011;48626;51.678;5.806;2023-05-20T08:06:38;5.82;;;3.42;;
62572;SDS011;48626;51.678;5.806;2023-05-20T08:09:04;6.13;;;3.38;;
62572;SDS011;48626;51.678;5.806;2023-05-20T08:11:31;7.00;;;3.70;;
62572;SDS011;48626;51.678;5.806;2023-05-20T08:13:57;6.72;;;3.60;;
62572;SDS011;48626;51.678;5.806;2023-05-20T08:16:23;5.30;;;3.30;;
62572;SDS011;48626;51.678;5.806;2023-05-20T08:18:48;8.18;;;3.53;;
62572;SDS011;48626;51.678;5.806;2023-05-20T08:21:14;5.70;;;3.70;;
62572;SDS011;48626;51.678;5.806;2023-05-20T08:23:40;6.20;;;3.60;;
62572;SDS011;48626;51.678;5.806;2023-05-20T08:26:06;8.95;;;3.60;;
62572;SDS011;48626;51.678;5.806;2023-05-20T08:28:31;10.00;;;4.35;;
62572;SDS011;48626;51.678;5.806;2023-05-20T08:30:59;9.68;;;3.53;;
62572;SDS011;48626;51.678;5.806;2023-05-20T08:33:26;10.40;;;3.50;;
62572;SDS011;48626;51.678;5.806;2023-05-20T08:35:52;5.30;;;3.70;;
62572;SDS011;48626;51.678;5.806;2023-05-20T08:38:17;5.93;;;3.47;;
62572;SDS011;48626;51.678;5.806;2023-05-20T08:40:43;6.15;;;3.58;;
62572;SDS011;48626;51.678;5.806;2023-05-20T08:43:09;8.10;;;3.60;;
62572;SDS011;48626;51.678;5.806;2023-05-20T08:45:38;7.45;;;3.55;;
62572;SDS011;48626;51.678;5.806;2023-05-20T08:48:03;6.80;;;3.40;;
62572;SDS011;48626;51.678;5.806;2023-05-20T08:50:30;4.90;;;3.20;;
62572;SDS011;48626;51.678;5.806;2023-05-20T08:52:56;9.27;;;3.28;;
62572;SDS011;48626;51.678;5.806;2023-05-20T08:57:53;7.32;;;3.60;;
62572;SDS011;48626;51.678;5.806;2023-05-20T09:00:20;13.35;;;3.72;;
62572;SDS011;48626;51.678;5.806;2023-05-20T09:02:52;8.65;;;3.80;;
62572;SDS011;48626;51.678;5.806;2023-05-20T09:05:19;12.57;;;3.67;;
62572;SDS011;48626;51.678;5.806;2023-05-20T09:07:45;6.40;;;3.42;;
62572;SDS011;48626;51.678;5.806;2023-05-20T09:10:11;7.95;;;3.63;;
62572;SDS011;48626;51.678;5.806;2023-05-20T09:12:37;11.52;;;3.85;;
62572;SDS011;48626;51.678;5.806;2023-05-20T09:15:03;6.70;;;3.30;;
62572;SDS011;48626;51.678;5.806;2023-05-20T09:17:30;8.80;;;3.35;;
62572;SDS011;48626;51.678;5.806;2023-05-20T09:19:56;8.95;;;3.10;;
62572;SDS011;48626;51.678;5.806;2023-05-20T09:22:22;7.32;;;3.33;;
62572;SDS011;48626;51.678;5.806;2023-05-20T09:24:52;5.15;;;3.05;;
62572;SDS011;48626;51.678;5.806;2023-05-20T09:27:18;6.93;;;3.15;;
62572;SDS011;48626;51.678;5.806;2023-05-20T09:29:48;6.00;;;3.20;;
62572;SDS011;48626;51.678;5.806;2023-05-20T09:32:15;6.75;;;3.22;;
62572;SDS011;48626;51.678;5.806;2023-05-20T09:34:42;5.68;;;3.10;;
62572;SDS011;48626;51.678;5.806;2023-05-20T09:37:09;8.27;;;3.35;;
62572;SDS011;48626;51.678;5.806;2023-05-20T09:39:43;6.53;;;3.10;;
62572;SDS011;48626;51.678;5.806;2023-05-20T09:42:21;5.43;;;3.00;;
62572;SDS011;48626;51.678;5.806;2023-05-20T09:44:50;4.72;;;3.00;;
62572;SDS011;48626;51.678;5.806;2023-05-20T09:47:18;5.07;;;2.90;;
62572;SDS011;48626;51.678;5.806;2023-05-20T09:49:44;4.95;;;2.90;;
62572;SDS011;48626;51.678;5.806;2023-05-20T09:52:16;8.98;;;3.10;;
62572;SDS011;48626;51.678;5.806;2023-05-20T09:54:43;4.90;;;3.00;;
62572;SDS011;48626;51.678;5.806;2023-05-20T09:57:09;7.75;;;2.90;;
62572;SDS011;48626;51.678;5.806;2023-05-20T09:59:36;6.45;;;2.92;;
62572;SDS011;48626;51.678;5.806;2023-05-20T10:02:03;9.52;;;3.28;;
62572;SDS011;48626;51.678;5.806;2023-05-20T10:04:30;9.05;;;2.92;;
62572;SDS011;48626;51.678;5.806;2023-05-20T10:07:08;7.50;;;2.92;;
62572;SDS011;48626;51.678;5.806;2023-05-20T10:15:34;5.50;;;2.80;;
62572;SDS011;48626;51.678;5.806;2023-05-20T10:20:57;7.43;;;2.90;;
62572;SDS011;48626;51.678;5.806;2023-05-20T10:23:27;8.35;;;2.97;;
62572;SDS011;48626;51.678;5.806;2023-05-20T10:25:54;8.40;;;2.90;;
62572;SDS011;48626;51.678;5.806;2023-05-20T10:28:28;6.07;;;3.00;;
62572;SDS011;48626;51.678;5.806;2023-05-20T10:31:00;6.25;;;2.92;;
62572;SDS011;48626;51.678;5.806;2023-05-20T10:33:27;6.38;;;3.03;;
62572;SDS011;48626;51.678;5.806;2023-05-20T10:35:57;4.93;;;2.78;;
62572;SDS011;48626;51.678;5.806;2023-05-20T10:38:24;15.30;;;3.30;;
62572;SDS011;48626;51.678;5.806;2023-05-20T10:40:50;8.30;;;2.90;;
62572;SDS011;48626;51.678;5.806;2023-05-20T10:43:24;7.72;;;3.00;;
62572;SDS011;48626;51.678;5.806;2023-05-20T10:45:52;7.00;;;2.92;;
62572;SDS011;48626;51.678;5.806;2023-05-20T10:48:25;4.13;;;2.83;;
62572;SDS011;48626;51.678;5.806;2023-05-20T10:50:53;4.85;;;2.42;;
62572;SDS011;48626;51.678;5.806;2023-05-20T10:53:21;7.82;;;2.75;;
62572;SDS011;48626;51.678;5.806;2023-05-20T10:55:49;6.65;;;3.10;;
62572;SDS011;48626;51.678;5.806;2023-05-20T10:58:16;4.70;;;3.05;;
62572;SDS011;48626;51.678;5.806;2023-05-20T11:00:43;5.25;;;2.63;;
62572;SDS011;48626;51.678;5.806;2023-05-20T11:03:10;8.93;;;3.00;;
62572;SDS011;48626;51.678;5.806;2023-05-20T11:05:38;6.07;;;2.90;;
62572;SDS011;48626;51.678;5.806;2023-05-20T11:08:07;6.70;;;2.65;;
62572;SDS011;48626;51.678;5.806;2023-05-20T11:10:34;11.77;;;2.88;;
62572;SDS011;48626;51.678;5.806;2023-05-20T11:13:01;6.13;;;2.90;;
62572;SDS011;48626;51.678;5.806;2023-05-20T11:15:28;6.55;;;3.38;;
62572;SDS011;48626;51.678;5.806;2023-05-20T11:17:59;6.18;;;2.97;;
62572;SDS011;48626;51.678;5.806;2023-05-20T11:20:26;9.18;;;2.92;;
62572;SDS011;48626;51.678;5.806;2023-05-20T11:22:52;4.22;;;2.78;;
62572;SDS011;48626;51.678;5.806;2023-05-20T11:25:18;5.25;;;2.83;;
62572;SDS011;48626;51.678;5.806;2023-05-20T11:27:47;7.40;;;2.92;;
62572;SDS011;48626;51.678;5.806;2023-05-20T11:30:14;5.28;;;2.70;;
62572;SDS011;48626;51.678;5.806;2023-05-20T11:32:43;7.57;;;2.90;;
62572;SDS011;48626;51.678;5.806;2023-05-20T11:35:21;3.95;;;2.50;;
62572;SDS011;48626;51.678;5.806;2023-05-20T11:37:59;10.88;;;3.00;;
62572;SDS011;48626;51.678;5.806;2023-05-20T11:40:27;5.90;;;2.75;;
62572;SDS011;48626;51.678;5.806;2023-05-20T11:42:55;15.15;;;3.78;;
62572;SDS011;48626;51.678;5.806;2023-05-20T11:45:21;6.55;;;2.83;;
62572;SDS011;48626;51.678;5.806;2023-05-20T11:47:57;4.45;;;2.90;;
62572;SDS011;48626;51.678;5.806;2023-05-20T11:50:27;4.65;;;2.65;;
62572;SDS011;48626;51.678;5.806;2023-05-20T11:52:57;6.47;;;3.15;;
62572;SDS011;48626;51.678;5.806;2023-05-20T11:55:24;4.78;;;2.92;;
62572;SDS011;48626;51.678;5.806;2023-05-20T11:57:50;7.22;;;3.17;;
62572;SDS011;48626;51.678;5.806;2023-05-20T12:00:16;4.05;;;2.80;;
62572;SDS011;48626;51.678;5.806;2023-05-20T12:02:43;4.65;;;2.58;;
62572;SDS011;48626;51.678;5.806;2023-05-20T12:05:09;4.00;;;2.85;;
62572;SDS011;48626;51.678;5.806;2023-05-20T12:07:35;6.53;;;2.90;;
62572;SDS011;48626;51.678;5.806;2023-05-20T12:10:04;8.32;;;2.95;;
62572;SDS011;48626;51.678;5.806;2023-05-20T12:12:30;6.40;;;2.90;;
62572;SDS011;48626;51.678;5.806;2023-05-20T12:14:56;9.80;;;2.95;;
62572;SDS011;48626;51.678;5.806;2023-05-20T12:17:22;6.03;;;3.22;;
62572;SDS011;48626;51.678;5.806;2023-05-20T12:19:47;4.20;;;2.55;;
62572;SDS011;48626;51.678;5.806;2023-05-20T12:22:13;5.95;;;2.67;;
62572;SDS011;48626;51.678;5.806;2023-05-20T12:24:39;5.50;;;2.97;;
62572;SDS011;48626;51.678;5.806;2023-05-20T12:27:05;11.02;;;3.17;;
62572;SDS011;48626;51.678;5.806;2023-05-20T12:29:31;7.20;;;3.15;;
62572;SDS011;48626;51.678;5.806;2023-05-20T12:31:57;5.05;;;3.10;;
62572;SDS011;48626;51.678;5.806;2023-05-20T12:34:23;4.55;;;2.67;;
62572;SDS011;48626;51.678;5.806;2023-05-20T12:36:49;3.92;;;2.78;;
62572;SDS011;48626;51.678;5.806;2023-05-20T12:39:15;7.38;;;2.63;;
62572;SDS011;48626;51.678;5.806;2023-05-20T12:41:42;5.03;;;2.50;;
62572;SDS011;48626;51.678;5.806;2023-05-20T12:44:08;5.95;;;3.03;;
62572;SDS011;48626;51.678;5.806;2023-05-20T12:46:34;4.75;;;2.88;;
62572;SDS011;48626;51.678;5.806;2023-05-20T12:49:01;4.03;;;2.70;;
62572;SDS011;48626;51.678;5.806;2023-05-20T12:51:27;5.72;;;2.65;;
62572;SDS011;48626;51.678;5.806;2023-05-20T12:53:52;4.55;;;2.47;;
62572;SDS011;48626;51.678;5.806;2023-05-20T12:56:18;6.63;;;2.60;;
62572;SDS011;48626;51.678;5.806;2023-05-20T12:58:44;4.43;;;2.63;;
62572;SDS011;48626;51.678;5.806;2023-05-20T13:01:10;5.22;;;2.90;;
62572;SDS011;48626;51.678;5.806;2023-05-20T13:03:35;3.70;;;2.80;;
62572;SDS011;48626;51.678;5.806;2023-05-20T13:06:01;8.07;;;2.83;;
62572;SDS011;48626;51.678;5.806;2023-05-20T13:08:28;7.35;;;3.17;;
62572;SDS011;48626;51.678;5.806;2023-05-20T13:10:53;7.78;;;2.88;;
62572;SDS011;48626;51.678;5.806;2023-05-20T13:13:19;6.10;;;2.70;;
62572;SDS011;48626;51.678;5.806;2023-05-20T13:15:49;6.45;;;2.72;;
62572;SDS011;48626;51.678;5.806;2023-05-20T13:18:15;5.00;;;3.13;;
62572;SDS011;48626;51.678;5.806;2023-05-20T13:20:41;4.78;;;2.65;;
62572;SDS011;48626;51.678;5.806;2023-05-20T13:23:10;4.93;;;2.85;;
62572;SDS011;48626;51.678;5.806;2023-05-20T13:25:36;4.30;;;2.90;;
62572;SDS011;48626;51.678;5.806;2023-05-20T13:28:02;4.18;;;2.83;;
62572;SDS011;48626;51.678;5.806;2023-05-20T13:30:29;3.88;;;2.80;;
62572;SDS011;48626;51.678;5.806;2023-05-20T13:32:54;10.23;;;3.00;;
62572;SDS011;48626;51.678;5.806;2023-05-20T13:35:20;8.35;;;3.10;;
62572;SDS011;48626;51.678;5.806;2023-05-20T13:37:46;8.07;;;3.08;;
62572;SDS011;48626;51.678;5.806;2023-05-20T13:40:12;6.05;;;3.42;;
62572;SDS011;48626;51.678;5.806;2023-05-20T13:42:37;5.45;;;2.90;;
62572;SDS011;48626;51.678;5.806;2023-05-20T13:45:03;7.57;;;3.00;;
62572;SDS011;48626;51.678;5.806;2023-05-20T13:47:30;6.50;;;2.80;;
62572;SDS011;48626;51.678;5.806;2023-05-20T13:49:55;5.00;;;2.80;;
62572;SDS011;48626;51.678;5.806;2023-05-20T13:52:21;3.63;;;2.72;;
62572;SDS011;48626;51.678;5.806;2023-05-20T13:54:47;6.55;;;3.13;;
62572;SDS011;48626;51.678;5.806;2023-05-20T13:57:13;9.30;;;3.00;;
62572;SDS011;48626;51.678;5.806;2023-05-20T13:59:39;11.02;;;2.90;;
62572;SDS011;48626;51.678;5.806;2023-05-20T14:02:05;5.43;;;2.90;;
62572;SDS011;48626;51.678;5.806;2023-05-20T14:04:31;8.23;;;2.80;;
62572;SDS011;48626;51.678;5.806;2023-05-20T14:07:04;4.90;;;2.88;;
62572;SDS011;48626;51.678;5.806;2023-05-20T14:09:30;5.32;;;2.90;;
62572;SDS011;48626;51.678;5.806;2023-05-20T14:11:56;6.95;;;2.80;;
62572;SDS011;48626;51.678;5.806;2023-05-20T14:14:21;4.47;;;2.58;;
62572;SDS011;48626;51.678;5.806;2023-05-20T14:16:47;6.45;;;2.75;;
62572;SDS011;48626;51.678;5.806;2023-05-20T14:19:13;8.13;;;2.97;;
62572;SDS011;48626;51.678;5.806;2023-05-20T14:21:38;6.88;;;2.85;;
62572;SDS011;48626;51.678;5.806;2023-05-20T14:24:04;10.77;;;2.67;;
62572;SDS011;48626;51.678;5.806;2023-05-20T14:26:31;7.43;;;2.85;;
62572;SDS011;48626;51.678;5.806;2023-05-20T14:28:57;6.50;;;2.60;;
62572;SDS011;48626;51.678;5.806;2023-05-20T14:31:22;4.05;;;2.53;;
62572;SDS011;48626;51.678;5.806;2023-05-20T14:33:48;5.28;;;2.88;;
62572;SDS011;48626;51.678;5.806;2023-05-20T14:36:14;7.10;;;3.40;;
62572;SDS011;48626;51.678;5.806;2023-05-20T14:38:40;3.58;;;2.70;;
62572;SDS011;48626;51.678;5.806;2023-05-20T14:41:05;7.05;;;3.05;;
62572;SDS011;48626;51.678;5.806;2023-05-20T14:43:31;7.50;;;2.80;;
62572;SDS011;48626;51.678;5.806;2023-05-20T14:45:56;5.20;;;2.90;;
62572;SDS011;48626;51.678;5.806;2023-05-20T14:48:22;7.75;;;2.72;;
62572;SDS011;48626;51.678;5.806;2023-05-20T14:50:48;4.68;;;2.78;;
62572;SDS011;48626;51.678;5.806;2023-05-20T14:53:15;5.68;;;3.03;;